Time;durP1;ratioP1;P1;durP2;ratioP2;P2;SDS_P1;SDS_P2;PMS_P1;PMS_P2;Temp;Humidity;BMP_temperature;BMP_pressure;BME280_temperature;BME280_humidity;BME280_pressure;Samples;Min_cycle;Max_cycle;Signal;HPM_P1;HPM_P2
2021/08/19 00:01:35;;;;;;;3.27;2.20;;;;;;;18.15;100.00;98698.80;1753878;81;20836;-72
2021/08/19 00:04:05;;;;;;;4.58;2.52;;;;;;;18.10;100.00;98710.14;1753984;80;21418;-71
2021/08/19 00:06:33;;;;;;;3.27;2.47;;;;;;;18.08;100.00;98719.16;1754009;80;20928;-71
2021/08/19 00:09:02;;;;;;;2.67;2.22;;;;;;;18.05;100.00;98724.16;1753522;81;20887;-71
2021/08/19 00:11:32;;;;;;;6.90;2.40;;;;;;;18.05;100.00;98724.16;1753658;81;20888;-70
2021/08/19 00:14:00;;;;;;;3.72;2.40;;;;;;;18.06;100.00;98721.02;1726176;80;21080;-71
2021/08/19 00:16:28;;;;;;;3.47;2.40;;;;;;;18.03;100.00;98717.16;1753697;80;20895;-72
2021/08/19 00:18:58;;;;;;;3.45;2.45;;;;;;;18.00;100.00;98719.95;1753565;82;20887;-72
2021/08/19 00:21:29;;;;;;;4.08;2.05;;;;;;;17.97;100.00;98713.37;1753824;80;20927;-72
2021/08/19 00:23:58;;;;;;;3.37;2.25;;;;;;;17.97;100.00;98714.25;1753608;80;21398;-72
2021/08/19 00:26:28;;;;;;;3.62;2.45;;;;;;;17.97;100.00;98709.38;1753582;80;21415;-71
2021/08/19 00:29:10;;;;;;;;;;;;;;;17.96;100.00;98703.17;1706786;83;20855;-70
2021/08/19 00:31:40;;;;;;;2.80;2.50;;;;;;;17.94;100.00;98697.03;1680272;85;20418;-71
2021/08/19 00:34:08;;;;;;;2.35;2.10;;;;;;;17.90;100.00;98714.11;1687491;84;20872;-71
2021/08/19 00:36:37;;;;;;;3.72;2.35;;;;;;;17.89;100.00;98729.72;1688014;84;21490;-71
2021/08/19 00:39:05;;;;;;;3.67;2.45;;;;;;;17.88;100.00;98727.52;1687664;85;21405;-71
2021/08/19 00:41:41;;;;;;;3.12;2.12;;;;;;;17.88;100.00;98723.98;1687646;85;21479;-71
2021/08/19 00:44:08;;;;;;;3.55;2.52;;;;;;;17.87;100.00;98724.45;1688489;84;20880;-71
2021/08/19 00:46:38;;;;;;;2.83;2.37;;;;;;;17.85;100.00;98728.11;1690082;84;21411;-72
2021/08/19 00:49:11;;;;;;;3.58;2.10;;;;;;;17.82;100.00;98732.24;1690306;85;20975;-71
2021/08/19 00:51:46;;;;;;;4.42;2.37;;;;;;;17.81;100.00;98734.52;1690355;85;21852;-71
2021/08/19 00:54:20;;;;;;;4.00;2.55;;;;;;;17.81;100.00;98738.05;1690103;85;20936;-71
2021/08/19 00:57:00;;;;;;;3.67;2.45;;;;;;;17.82;100.00;98743.78;1690635;85;20920;-70
2021/08/19 00:59:38;;;;;;;3.33;2.25;;;;;;;17.80;100.00;98739.45;1669173;85;21015;-70
2021/08/19 01:02:07;;;;;;;4.25;2.70;;;;;;;17.78;100.00;98738.17;1690461;85;20908;-71
2021/08/19 01:04:41;;;;;;;4.45;2.40;;;;;;;17.79;100.00;98737.71;1690593;85;21419;-71
2021/08/19 01:07:09;;;;;;;3.90;2.90;;;;;;;17.80;100.00;98735.45;1690924;84;21507;-69
2021/08/19 01:09:38;;;;;;;3.87;3.10;;;;;;;17.82;100.00;98733.11;1690624;85;21004;-72
2021/08/19 01:12:09;;;;;;;5.95;5.08;;;;;;;17.82;100.00;98741.12;1690743;85;20968;-72
2021/08/19 01:14:42;;;;;;;;;;;;;;;17.83;100.00;98740.65;1693180;85;21432;-70
2021/08/19 01:17:14;;;;;;;5.40;4.33;;;;;;;17.83;100.00;98736.18;1691098;85;21107;-72
2021/08/19 01:19:49;;;;;;;7.37;4.70;;;;;;;17.84;100.00;98730.38;1691260;85;20971;-70
2021/08/19 01:22:20;;;;;;;4.97;3.15;;;;;;;17.84;100.00;98728.58;1691319;85;21367;-70
2021/08/19 01:24:48;;;;;;;3.12;2.65;;;;;;;17.83;100.00;98725.52;1691177;85;20960;-70
2021/08/19 01:27:19;;;;;;;5.15;2.90;;;;;;;17.81;100.00;98722.04;1691019;85;21454;-71
2021/08/19 01:29:49;;;;;;;3.87;2.60;;;;;;;17.82;100.00;98718.44;1721966;83;21881;-70
2021/08/19 01:32:19;;;;;;;5.20;2.70;;;;;;;17.84;100.00;98707.70;1724453;83;21414;-70
2021/08/19 01:34:54;;;;;;;6.25;2.92;;;;;;;17.85;100.00;98705.44;1724991;83;21400;-71
2021/08/19 01:37:22;;;;;;;4.20;2.77;;;;;;;17.84;100.00;98703.23;1726632;83;21018;-71
2021/08/19 01:39:52;;;;;;;4.42;2.67;;;;;;;17.83;100.00;98705.97;1726860;83;20881;-70
2021/08/19 01:42:22;;;;;;;3.95;2.90;;;;;;;17.82;100.00;98693.09;1726763;83;21102;-68
2021/08/19 01:44:51;;;;;;;5.28;3.00;;;;;;;17.82;100.00;98696.23;1726644;83;20936;-70
2021/08/19 01:47:22;;;;;;;4.85;2.92;;;;;;;17.82;100.00;98701.09;1724232;82;20881;-71
2021/08/19 01:49:53;;;;;;;4.72;2.80;;;;;;;17.80;100.00;98701.62;1723750;83;20901;-69
2021/08/19 01:52:23;;;;;;;6.25;2.67;;;;;;;17.82;100.00;98725.11;1723758;82;20933;-69
2021/08/19 01:54:53;;;;;;;3.70;2.60;;;;;;;17.82;100.00;98726.91;1723974;82;21488;-69
2021/08/19 01:57:23;;;;;;;4.08;3.67;;;;;;;17.85;100.00;98732.98;1723370;83;20904;-69
2021/08/19 01:59:53;;;;;;;4.30;3.67;;;;;;;17.87;100.00;98735.59;1723578;82;21456;-70
2021/08/19 02:02:21;;;;;;;5.15;4.62;;;;;;;17.85;100.00;98731.65;1723294;82;20897;-68
2021/08/19 02:04:49;;;;;;;4.95;3.12;;;;;;;17.84;100.00;98733.05;1723388;82;21447;-70
2021/08/19 02:07:17;;;;;;;4.05;2.90;;;;;;;17.85;100.00;98746.79;1723504;83;21424;-69
2021/08/19 02:09:46;;;;;;;5.80;4.37;;;;;;;17.87;100.00;98751.59;1723343;82;20941;-70
2021/08/19 02:12:15;;;;;;;5.08;3.67;;;;;;;17.89;100.00;98759.94;1723348;82;21425;-70
2021/08/19 02:14:43;;;;;;;6.08;3.15;;;;;;;17.87;100.00;98765.80;1722975;82;20893;-70
2021/08/19 02:17:11;;;;;;;4.00;2.90;;;;;;;17.85;100.00;98766.33;1723512;82;21005;-70
2021/08/19 02:19:44;;;;;;;4.70;2.72;;;;;;;17.85;100.00;98765.47;1723190;83;21471;-70
2021/08/19 02:22:13;;;;;;;3.10;2.55;;;;;;;17.85;100.00;98765.00;1723421;82;21452;-70
2021/08/19 02:24:42;;;;;;;6.67;2.87;;;;;;;17.86;100.00;98758.73;1723253;82;21341;-69
2021/08/19 02:27:10;;;;;;;4.12;3.37;;;;;;;17.87;100.00;98764.94;1723504;82;21744;-70
2021/08/19 02:29:38;;;;;;;4.25;2.87;;;;;;;17.86;100.00;98765.41;1727466;83;21498;-70
2021/08/19 02:32:07;;;;;;;4.30;3.08;;;;;;;17.84;100.00;98770.41;1728507;82;21085;-70
2021/08/19 02:34:36;;;;;;;4.78;2.77;;;;;;;17.83;100.00;98770.00;1728408;82;20840;-70
2021/08/19 02:37:04;;;;;;;5.08;2.90;;;;;;;17.83;100.00;98770.00;1728904;81;20952;-70
2021/08/19 02:39:35;;;;;;;5.87;2.72;;;;;;;17.82;100.00;98769.59;1728668;81;21443;-72
2021/08/19 02:42:03;;;;;;;7.78;4.75;;;;;;;17.81;100.00;98764.73;1728694;81;20939;-70
2021/08/19 02:44:32;;;;;;;8.30;5.50;;;;;;;17.79;100.00;98765.72;1728350;81;21426;-71
2021/08/19 02:47:00;;;;;;;5.90;3.52;;;;;;;17.75;100.00;98784.13;1728243;83;20888;-70
2021/08/19 02:49:30;;;;;;;6.12;3.08;;;;;;;17.74;100.00;98785.92;1728168;81;21418;-68
2021/08/19 02:51:58;;;;;;;5.15;4.20;;;;;;;17.74;100.00;98784.59;1705838;82;21001;-68
2021/08/19 02:54:26;;;;;;;5.10;3.72;;;;;;;17.74;100.00;98767.25;1705599;82;21437;-69
2021/08/19 02:56:55;;;;;;;5.00;3.27;;;;;;;17.72;100.00;98756.23;1705617;82;21148;-69
2021/08/19 02:59:23;;;;;;;3.30;2.75;;;;;;;17.70;100.00;98755.44;1705425;82;20937;-68
2021/08/19 03:01:51;;;;;;;4.15;2.90;;;;;;;17.66;100.00;98745.32;1728010;82;20936;-69
2021/08/19 03:04:20;;;;;;;4.25;2.92;;;;;;;17.66;100.00;98747.12;1728074;81;20944;-69
2021/08/19 03:06:50;;;;;;;8.35;3.77;;;;;;;17.67;100.00;98751.56;1705508;84;20938;-69
2021/08/19 03:09:18;;;;;;;5.47;4.87;;;;;;;17.67;100.00;98758.23;1705703;84;21955;-70
2021/08/19 03:11:48;;;;;;;4.53;3.75;;;;;;;17.66;100.00;98770.66;1728029;81;21427;-70
2021/08/19 03:14:16;;;;;;;4.12;2.90;;;;;;;17.63;100.00;98768.98;1728426;82;21430;-70
2021/08/19 03:16:44;;;;;;;3.05;2.60;;;;;;;17.64;100.00;98767.19;1705557;82;20961;-71
2021/08/19 03:19:13;;;;;;;5.50;3.02;;;;;;;17.64;100.00;98760.52;1728603;82;21475;-69
2021/08/19 03:21:43;;;;;;;5.47;3.12;;;;;;;17.65;100.00;98745.39;1705687;84;21162;-70
2021/08/19 03:24:10;;;;;;;3.77;3.00;;;;;;;17.63;100.00;98745.45;1705980;82;21361;-70
2021/08/19 03:26:41;;;;;;;3.80;2.90;;;;;;;17.61;100.00;98756.64;1704188;82;20931;-70
2021/08/19 03:29:08;;;;;;;3.10;2.70;;;;;;;17.61;100.00;98765.52;1709027;81;20958;-69
2021/08/19 03:31:38;;;;;;;5.78;3.80;;;;;;;17.63;100.00;98773.45;1705788;84;21363;-70
2021/08/19 03:34:06;;;;;;;6.75;5.05;;;;;;;17.62;100.00;98787.25;1706315;84;21435;-71
2021/08/19 03:36:34;;;;;;;4.58;4.00;;;;;;;17.62;100.00;98793.92;1705899;84;20955;-71
2021/08/19 03:39:05;;;;;;;5.45;3.42;;;;;;;17.62;100.00;98799.72;1706238;84;21479;-70
2021/08/19 03:41:33;;;;;;;5.33;3.72;;;;;;;17.62;100.00;98796.59;1705744;84;20920;-71
2021/08/19 03:44:00;;;;;;;6.03;4.47;;;;;;;17.64;100.00;98784.52;1705924;84;20877;-71
2021/08/19 03:46:28;;;;;;;4.65;3.30;;;;;;;17.67;100.00;98780.44;1705514;84;21742;-70
2021/08/19 03:48:59;;;;;;;5.00;3.75;;;;;;;17.68;100.00;98773.30;1700416;83;20885;-71
2021/08/19 03:51:27;;;;;;;6.97;3.62;;;;;;;17.66;100.00;98769.33;1700080;83;20908;-69
2021/08/19 03:53:56;;;;;;;5.17;3.45;;;;;;;17.66;100.00;98780.46;1700309;83;20940;-70
2021/08/19 03:56:28;;;;;;;8.15;4.00;;;;;;;17.65;100.00;98790.73;1699747;83;20908;-69
2021/08/19 03:58:56;;;;;;;8.58;4.70;;;;;;;17.68;100.00;98786.17;1700113;83;22994;-70
2021/08/19 04:01:24;;;;;;;5.03;4.30;;;;;;;17.69;100.00;98788.38;1699633;83;20930;-70
2021/08/19 04:03:52;;;;;;;4.17;3.77;;;;;;;17.69;100.00;98791.04;1699845;83;21460;-69
2021/08/19 04:06:24;;;;;;;5.08;3.55;;;;;;;17.68;100.00;98787.97;1699949;83;21412;-70
2021/08/19 04:08:53;;;;;;;6.22;3.60;;;;;;;17.68;100.00;98801.31;1699362;83;20944;-62
2021/08/19 04:11:21;;;;;;;6.67;3.92;;;;;;;17.70;100.00;98808.31;1699724;83;21082;-62
2021/08/19 04:13:51;;;;;;;6.87;4.47;;;;;;;17.72;100.00;98810.45;1699324;83;20908;-62
2021/08/19 04:16:19;;;;;;;6.15;4.45;;;;;;;17.75;100.00;98812.13;1699657;83;20997;-62
2021/08/19 04:18:49;;;;;;;6.83;4.33;;;;;;;17.75;100.00;98809.00;1699372;83;21431;-68
2021/08/19 04:21:17;;;;;;;7.00;5.62;;;;;;;17.78;100.00;98794.67;1699687;83;20945;-68
2021/08/19 04:23:47;;;;;;;7.00;4.47;;;;;;;17.82;100.00;98791.81;1699387;83;21456;-68
2021/08/19 04:26:16;;;;;;;4.78;3.87;;;;;;;17.85;100.00;98793.02;1699300;83;20921;-68
2021/08/19 04:28:45;;;;;;;6.45;3.70;;;;;;;17.86;100.00;98792.55;1685207;83;21475;-68
2021/08/19 04:31:12;;;;;;;6.40;3.50;;;;;;;17.88;100.00;98790.69;1671124;86;20960;-68
2021/08/19 04:33:40;;;;;;;6.15;3.83;;;;;;;17.87;100.00;98791.16;1671190;85;20985;-67
2021/08/19 04:36:07;;;;;;;4.05;3.47;;;;;;;17.88;100.00;98799.56;1678553;84;21099;-68
2021/08/19 04:38:35;;;;;;;4.78;3.42;;;;;;;17.88;100.00;98802.70;1685644;83;20955;-67
2021/08/19 04:41:02;;;;;;;4.90;3.52;;;;;;;17.89;100.00;98808.44;1671411;84;20873;-67
2021/08/19 04:43:30;;;;;;;6.40;3.55;;;;;;;17.88;100.00;98810.70;1643929;86;20914;-67
2021/08/19 04:45:57;;;;;;;4.60;3.35;;;;;;;17.90;100.00;98806.17;1643947;86;20986;-67
2021/08/19 04:48:25;;;;;;;9.15;3.60;;;;;;;17.90;100.00;98808.84;1677877;84;21435;-67
2021/08/19 04:50:53;;;;;;;6.78;4.00;;;;;;;17.92;100.00;98810.51;1691454;84;20875;-68
2021/08/19 04:53:21;;;;;;;5.03;4.10;;;;;;;17.92;100.00;98800.30;1697074;84;20943;-68
2021/08/19 04:55:48;;;;;;;5.75;4.10;;;;;;;17.93;100.00;98807.38;1671894;85;21466;-68
2021/08/19 04:58:16;;;;;;;7.40;4.10;;;;;;;17.93;100.00;98822.05;1697159;84;20939;-69
2021/08/19 05:00:43;;;;;;;4.83;3.58;;;;;;;17.91;100.00;98823.45;1696916;84;21104;-68
2021/08/19 05:03:10;;;;;;;4.90;3.20;;;;;;;17.92;100.00;98823.85;1697110;84;20903;-68
2021/08/19 05:05:38;;;;;;;7.97;4.08;;;;;;;17.94;100.00;98821.98;1697039;84;21533;-67
2021/08/19 05:08:07;;;;;;;4.58;3.62;;;;;;;17.94;100.00;98820.66;1697120;84;21667;-67
2021/08/19 05:10:34;;;;;;;4.53;3.55;;;;;;;17.94;100.00;98818.45;1696879;84;20938;-68
2021/08/19 05:13:01;;;;;;;4.65;3.60;;;;;;;17.93;100.00;98814.05;1672256;85;21045;-68
2021/08/19 05:15:29;;;;;;;5.75;3.35;;;;;;;17.91;100.00;98808.77;1696872;84;20911;-68
2021/08/19 05:17:58;;;;;;;8.73;3.85;;;;;;;17.90;100.00;98818.17;1697114;83;20963;-68
2021/08/19 05:20:28;;;;;;;4.00;3.60;;;;;;;17.91;100.00;98812.77;1696845;84;20907;-68
2021/08/19 05:22:55;;;;;;;7.58;3.90;;;;;;;17.92;100.00;98812.31;1697252;84;20979;-68
2021/08/19 05:25:25;;;;;;;3.87;3.47;;;;;;;17.92;100.00;98811.84;1696919;84;20907;-68
2021/08/19 05:27:53;;;;;;;8.05;3.95;;;;;;;17.92;100.00;98810.98;1701080;83;21462;-67
2021/08/19 05:30:21;;;;;;;4.95;3.58;;;;;;;17.92;100.00;98809.17;1725996;83;20888;-68
2021/08/19 05:32:49;;;;;;;5.45;3.77;;;;;;;17.92;100.00;98813.64;1726032;83;20915;-69
2021/08/19 05:35:16;;;;;;;5.40;3.62;;;;;;;17.95;100.00;98814.85;1726061;83;20966;-67
2021/08/19 05:37:44;;;;;;;5.40;3.60;;;;;;;17.99;100.00;98815.62;1726053;83;21141;-68
2021/08/19 05:40:12;;;;;;;4.15;3.58;;;;;;;17.99;100.00;98818.30;1725948;83;20931;-68
2021/08/19 05:42:40;;;;;;;7.12;4.83;;;;;;;18.00;100.00;98813.36;1726014;83;20887;-68
2021/08/19 05:45:09;;;;;;;7.60;5.72;;;;;;;18.00;100.00;98813.36;1726072;83;21292;-68
2021/08/19 05:47:37;;;;;;;6.83;4.85;;;;;;;18.02;100.00;98816.37;1725935;83;20899;-67
2021/08/19 05:50:10;;;;;;;9.38;5.08;;;;;;;18.06;100.00;98815.30;1723520;83;21146;-67
2021/08/19 05:52:39;;;;;;;6.78;5.50;;;;;;;18.10;100.00;98804.91;1694337;84;20904;-67
2021/08/19 05:55:08;;;;;;;8.45;6.22;;;;;;;18.12;100.00;98812.37;1726234;83;21489;-67
2021/08/19 05:57:35;;;;;;;7.33;5.90;;;;;;;18.14;100.00;98810.98;1713385;83;20923;-67
2021/08/19 06:00:05;;;;;;;8.28;5.22;;;;;;;18.13;100.00;98807.91;1698427;83;20952;-68
2021/08/19 06:02:34;;;;;;;7.33;4.40;;;;;;;18.16;100.00;98821.13;1724840;83;21142;-67
2021/08/19 06:05:02;;;;;;;7.97;5.72;;;;;;;18.17;100.00;98822.40;1700410;84;21397;-68
2021/08/19 06:07:30;;;;;;;6.40;5.33;;;;;;;18.21;100.00;98823.14;1699602;84;20975;-69
2021/08/19 06:09:58;;;;;;;5.67;5.05;;;;;;;18.21;100.00;98827.14;1677490;84;20919;-67
2021/08/19 06:12:26;;;;;;;6.78;6.00;;;;;;;18.21;100.00;98819.13;1695517;83;20860;-68
2021/08/19 06:14:54;;;;;;;6.55;4.95;;;;;;;18.21;100.00;98821.80;1700701;83;21048;-68
2021/08/19 06:17:21;;;;;;;6.53;4.90;;;;;;;18.22;100.00;98824.88;1701167;83;20943;-67
2021/08/19 06:19:51;;;;;;;8.00;6.10;;;;;;;18.26;100.00;98829.15;1697976;84;20860;-68
2021/08/19 06:22:18;;;;;;;6.87;5.67;;;;;;;18.29;100.00;98834.83;1702481;83;21485;-69
2021/08/19 06:24:47;;;;;;;7.65;4.53;;;;;;;18.28;100.00;98833.95;1703016;84;21406;-69
2021/08/19 06:27:16;;;;;;;8.50;5.62;;;;;;;18.30;100.00;98832.56;1718481;83;21105;-68
2021/08/19 06:29:46;;;;;;;6.45;4.70;;;;;;;18.30;100.00;98834.76;1700383;84;20960;-68
2021/08/19 06:32:14;;;;;;;7.35;4.72;;;;;;;18.33;100.00;98824.42;1707550;83;21568;-69
2021/08/19 06:34:41;;;;;;;5.67;4.67;;;;;;;18.36;100.00;98830.96;1686593;84;20885;-69
2021/08/19 06:37:09;;;;;;;8.13;6.00;;;;;;;18.37;100.00;98829.56;1673906;84;20958;-69
2021/08/19 06:39:36;;;;;;;8.93;5.95;;;;;;;18.39;100.00;98840.17;1693526;84;21080;-69
2021/08/19 06:42:04;;;;;;;6.55;5.62;;;;;;;18.38;100.00;98833.97;1714195;83;20855;-70
2021/08/19 06:44:31;;;;;;;7.83;4.97;;;;;;;18.38;100.00;98831.77;1697971;84;21423;-70
2021/08/19 06:46:59;;;;;;;6.05;4.90;;;;;;;18.37;100.00;98833.56;1716726;83;20902;-70
2021/08/19 06:49:27;;;;;;;6.05;4.92;;;;;;;18.42;100.00;98834.70;1715484;83;20915;-69
2021/08/19 06:51:54;;;;;;;10.28;5.40;;;;;;;18.44;100.00;98829.70;1700826;83;21145;-70
2021/08/19 06:54:22;;;;;;;5.95;4.70;;;;;;;18.45;100.00;98834.61;1700383;84;20872;-69
2021/08/19 06:56:49;;;;;;;6.17;5.03;;;;;;;18.46;100.00;98839.02;1722367;83;20989;-69
2021/08/19 06:59:16;;;;;;;5.85;4.83;;;;;;;18.45;100.00;98842.15;1722340;83;21025;-70
2021/08/19 07:01:45;;;;;;;7.67;4.72;;;;;;;18.48;100.00;98845.16;1710181;83;20880;-69
2021/08/19 07:04:12;;;;;;;7.33;5.03;;;;;;;18.51;100.00;98848.56;1723387;83;21150;-69
2021/08/19 07:06:39;;;;;;;7.25;5.12;;;;;;;18.53;100.00;98849.36;1705097;84;20916;-69
2021/08/19 07:09:07;;;;;;;5.60;4.97;;;;;;;18.55;100.00;98850.63;1726579;83;20942;-69
2021/08/19 07:11:35;;;;;;;11.73;4.80;;;;;;;18.55;100.00;98850.63;1701824;84;20924;-68
2021/08/19 07:14:03;;;;;;;8.85;4.40;;;;;;;18.56;100.00;98848.36;1721952;83;21362;-69
2021/08/19 07:16:30;;;;;;;10.05;4.58;;;;;;;18.57;100.00;98852.77;1718765;82;21097;-68
2021/08/19 07:18:58;;;;;;;6.08;4.37;;;;;;;18.61;100.00;98850.37;1703358;84;20904;-69
2021/08/19 07:21:25;;;;;;;9.70;4.78;;;;;;;18.65;100.00;98846.66;1726683;83;21489;-68
2021/08/19 07:23:54;;;;;;;5.85;5.08;;;;;;;18.67;100.00;98848.80;1683290;84;21463;-69
2021/08/19 07:26:23;;;;;;;6.33;4.22;;;;;;;18.69;100.00;98847.39;1726482;83;21014;-67
2021/08/19 07:28:53;;;;;;;11.25;4.62;;;;;;;18.70;100.00;98846.45;1705208;84;21125;-68
2021/08/19 07:31:20;;;;;;;9.35;5.15;;;;;;;18.73;100.00;98846.33;1712065;83;20942;-68
2021/08/19 07:33:49;;;;;;;8.15;5.00;;;;;;;18.77;100.00;98851.47;1698415;83;21434;-67
2021/08/19 07:36:16;;;;;;;6.85;4.67;;;;;;;18.81;100.00;98849.05;1694766;84;20900;-66
2021/08/19 07:38:45;;;;;;;5.78;5.17;;;;;;;18.83;100.00;98842.31;1689815;84;21007;-70
2021/08/19 07:41:12;;;;;;;7.97;4.85;;;;;;;18.84;100.00;98843.58;1721420;83;21080;-71
2021/08/19 07:43:40;;;;;;;8.15;4.50;;;;;;;18.85;100.00;98845.78;1703524;83;20931;-72
2021/08/19 07:46:08;;;;;;;8.10;4.12;;;;;;;18.86;100.00;98846.18;1698058;84;21429;-72
2021/08/19 07:48:36;;;;;;;6.50;4.08;;;;;;;18.90;100.00;98848.25;1726410;83;20964;-71
2021/08/19 07:51:05;;;;;;;6.62;4.10;;;;;;;18.92;100.00;98847.27;1726383;83;21427;-70
2021/08/19 07:53:32;;;;;;;6.15;4.40;;;;;;;18.96;100.00;98848.00;1719830;83;21422;-70
2021/08/19 07:56:01;;;;;;;7.33;4.67;;;;;;;18.97;100.00;98843.06;1677923;84;20871;-70
2021/08/19 07:58:30;;;;;;;4.70;3.98;;;;;;;18.98;100.00;98845.66;1703953;83;20903;-71
2021/08/19 08:00:58;;;;;;;7.70;3.83;;;;;;;19.01;100.00;98848.66;1694047;84;21027;-70
2021/08/19 08:03:26;;;;;;;6.28;4.37;;;;;;;19.04;100.00;98843.18;1695030;83;21575;-70
2021/08/19 08:05:53;;;;;;;7.22;4.35;;;;;;;19.07;100.00;98840.37;1697738;84;21429;-69
2021/08/19 08:08:21;;;;;;;6.55;4.30;;;;;;;19.13;100.00;98844.09;1697211;84;20847;-70
2021/08/19 08:10:49;;;;;;;6.80;4.45;;;;;;;19.20;100.00;98844.22;1697564;84;20859;-69
2021/08/19 08:13:17;;;;;;;6.33;4.33;;;;;;;19.26;100.00;98847.08;1682337;84;20936;-69
2021/08/19 08:15:45;;;;;;;7.97;4.75;;;;;;;19.30;100.00;98850.87;1700579;83;20872;-69
2021/08/19 08:18:17;;;;;;;6.75;4.55;;;;;;;19.35;100.00;98850.66;1724368;83;21975;-68
2021/08/19 08:20:45;;;;;;;12.05;4.97;;;;;;;19.36;100.00;98849.72;1688142;84;20916;-68
2021/08/19 08:23:17;;;;;;;6.47;4.35;;;;;;;19.37;100.00;98845.64;1695736;83;20967;-68
2021/08/19 08:25:42;;;;;;;8.70;4.47;;;;;;;19.41;100.00;98845.06;1721455;83;20903;-69
2021/08/19 08:28:11;;;;;;;8.45;4.97;;;;;;;19.48;100.00;98842.02;1721717;83;20898;-69
2021/08/19 08:30:41;;;;;;;10.50;5.58;;;;;;;19.56;100.00;98844.84;1721661;83;21090;-68
2021/08/19 08:33:09;;;;;;;7.58;4.95;;;;;;;19.58;100.00;98841.15;1721660;83;20919;-69
2021/08/19 08:35:37;;;;;;;6.97;4.60;;;;;;;19.62;100.00;98840.06;1720158;83;20891;-70
2021/08/19 08:38:06;;;;;;;5.33;4.47;;;;;;;19.68;100.00;98832.21;1693986;84;20944;-69
2021/08/19 08:40:35;;;;;;;7.03;4.20;;;;;;;19.74;100.00;98834.12;1694317;84;21491;-69
2021/08/19 08:43:06;;;;;;;5.90;4.17;;;;;;;19.81;100.00;98834.69;1694125;84;21857;-69
2021/08/19 08:45:38;;;;;;;6.58;3.87;;;;;;;19.90;100.00;98833.41;1693766;84;20885;-68
2021/08/19 08:48:11;;;;;;;7.20;4.37;;;;;;;20.01;100.00;98831.06;1693476;83;21446;-68
2021/08/19 08:50:40;;;;;;;4.60;3.70;;;;;;;20.09;100.00;98827.06;1694135;83;20888;-67
2021/08/19 08:53:09;;;;;;;5.40;3.95;;;;;;;20.18;100.00;98824.39;1695813;83;21424;-66
2021/08/19 08:55:38;;;;;;;6.92;4.33;;;;;;;20.26;100.00;98821.33;1695547;83;21462;-70
2021/08/19 08:58:10;;;;;;;10.03;4.22;;;;;;;20.33;100.00;98817.39;1695782;84;20891;-64
2021/08/19 09:00:42;;;;;;;7.08;4.62;;;;;;;20.40;100.00;98821.09;1696002;84;20908;-70
2021/08/19 09:03:13;;;;;;;5.70;3.90;;;;;;;20.51;100.00;98812.49;1695600;83;20904;-69
2021/08/19 09:05:47;;;;;;;7.47;3.98;;;;;;;20.60;100.00;98816.51;1696127;83;20935;-68
2021/08/19 09:08:22;;;;;;;3.65;3.25;;;;;;;20.68;100.00;98815.63;1695807;84;21041;-69
2021/08/19 09:10:53;;;;;;;4.97;3.90;;;;;;;20.75;100.00;98816.56;1695466;83;21396;-69
2021/08/19 09:13:23;;;;;;;5.78;4.10;;;;;;;20.81;100.00;98819.43;1711233;83;20920;-69
2021/08/19 09:15:53;;;;;;;5.05;3.47;;;;;;;20.83;100.00;98806.81;1697338;84;21353;-67
2021/08/19 09:18:41;;;;;;;5.72;3.72;;;;;;;20.84;100.00;98809.89;1723248;82;21493;-67
2021/08/19 09:21:24;;;;;;;8.15;4.15;;;;;;;20.86;100.00;98801.76;1696383;84;20943;-68
2021/08/19 09:24:14;;;;;;;74.62;7.05;;;;;;;20.89;100.00;98805.14;1723200;83;20939;-68
2021/08/19 09:26:41;;;;;;;10.43;3.80;;;;;;;20.91;100.00;98805.06;1632863;86;20931;-69
2021/08/19 09:29:21;;;;;;;8.23;4.17;;;;;;;20.95;100.00;98802.61;1685944;84;21410;-73
2021/08/19 09:31:50;;;;;;;4.78;3.60;;;;;;;20.99;100.00;98800.16;1698262;84;20908;-73
2021/08/19 09:34:17;;;;;;;5.53;3.30;;;;;;;21.01;100.00;98796.91;1724489;83;21082;-76
2021/08/19 09:36:46;;;;;;;7.55;3.70;;;;;;;21.04;100.00;98795.41;1695873;84;20873;-74
2021/08/19 09:39:14;;;;;;;5.95;3.85;;;;;;;21.02;100.00;98798.17;1680812;84;20948;-75
2021/08/19 09:41:53;;;;;;;4.78;3.55;;;;;;;21.02;100.00;98803.53;1693684;83;20943;-74
2021/08/19 09:44:34;;;;;;;6.03;3.47;;;;;;;21.02;100.00;98804.01;1694058;83;20931;-76
2021/08/19 09:47:05;;;;;;;6.62;3.92;;;;;;;21.03;100.00;98807.08;1694161;83;21087;-75
2021/08/19 09:49:37;;;;;;;10.48;4.20;;;;;;;21.07;100.00;98800.60;1693620;83;20951;-75
2021/08/19 09:52:12;;;;;;;5.12;3.87;;;;;;;21.12;100.00;98797.20;1696859;83;20982;-73
2021/08/19 09:54:42;;;;;;;21.05;18.82;;;;;;;21.15;100.00;98801.53;1712611;83;20899;-74
2021/08/19 09:57:10;;;;;;;8.78;7.75;;;;;;;21.16;100.00;98793.88;1717667;83;20891;-78
2021/08/19 09:59:40;;;;;;;11.48;8.28;;;;;;;21.20;100.00;98792.28;1692706;84;21115;-74
2021/08/19 10:02:10;;;;;;;11.43;6.33;;;;;;;21.24;100.00;98791.19;1698693;83;20915;-75
2021/08/19 10:04:39;;;;;;;;;;;;;;;21.33;100.00;98784.48;1696167;84;20856;-73
2021/08/19 10:07:06;;;;;;;55.40;47.30;;;;;;;21.43;100.00;98785.70;1693045;84;20083;-73
2021/08/19 10:09:34;;;;;;;13.78;12.33;;;;;;;21.51;100.00;98785.27;1693322;84;21470;-73
2021/08/19 10:12:02;;;;;;;9.25;7.30;;;;;;;21.60;100.00;98784.75;1692994;84;21103;-75
2021/08/19 10:14:31;;;;;;;9.53;5.72;;;;;;;21.70;100.00;98787.30;1693367;84;21378;-76
2021/08/19 10:17:00;;;;;;;10.60;4.65;;;;;;;21.86;100.00;98792.68;1715708;83;20931;-74
2021/08/19 10:19:38;;;;;;;13.30;10.72;;;;;;;21.99;100.00;98791.88;1693427;84;20930;-76
2021/08/19 10:22:19;;;;;;;9.38;7.33;;;;;;;22.13;100.00;98791.10;1708086;83;20927;-74
2021/08/19 10:24:54;;;;;;;8.85;6.87;;;;;;;22.24;100.00;98792.70;1706463;84;20897;-75
2021/08/19 10:27:26;;;;;;;8.03;4.92;;;;;;;22.36;100.00;98789.77;1727262;83;20908;-75
2021/08/19 10:30:01;;;;;;;7.20;4.65;;;;;;;22.49;100.00;98786.73;1727598;83;20842;-73
2021/08/19 10:32:35;;;;;;;13.70;11.50;;;;;;;22.62;100.00;98786.84;1727246;83;20869;-74
2021/08/19 10:35:11;;;;;;;5.58;4.90;;;;;;;22.72;100.00;98779.12;1704435;83;20899;-75
2021/08/19 10:37:54;;;;;;;9.03;4.80;;;;;;;22.79;100.00;98787.19;1696957;84;20956;-72
2021/08/19 10:40:31;;;;;;;8.43;5.80;;;;;;;22.84;100.00;98781.95;1697236;84;20911;-72
2021/08/19 10:43:02;;;;;;;5.50;4.15;;;;;;;22.90;100.00;98784.73;1696651;84;20919;-71
2021/08/19 10:45:35;;;;;;;6.72;4.53;;;;;;;22.97;100.00;98785.22;1693734;84;21347;-74
2021/08/19 10:48:10;;;;;;;10.43;8.20;;;;;;;23.02;100.00;98785.80;1696875;84;20911;-74
2021/08/19 10:50:41;;;;;;;39.58;25.77;;;;;;;23.03;100.00;98775.42;1693868;84;21619;-75
2021/08/19 10:53:16;;;;;;;22.75;14.83;;;;;;;23.05;100.00;98778.39;1702407;83;20964;-75
2021/08/19 10:55:45;;;;;;;15.58;10.70;;;;;;;23.11;100.00;98783.88;1697495;84;20955;-75
2021/08/19 10:58:30;;;;;;;54.45;45.50;;;;;;;23.16;100.00;98770.52;1698565;84;20940;-77
2021/08/19 11:01:18;;;;;;;30.32;22.62;;;;;;;23.19;100.00;98774.39;1706019;83;20995;-74
2021/08/19 11:03:54;;;;;;;11.05;7.70;;;;;;;23.26;100.00;98772.65;1684267;84;21734;-76
2021/08/19 11:06:42;;;;;;;10.32;8.73;;;;;;;23.34;100.00;98767.16;1725643;82;21428;-74
2021/08/19 11:09:14;;;;;;;13.58;11.25;;;;;;;23.43;100.00;98769.73;1710332;83;20891;-74
2021/08/19 11:11:46;;;;;;;12.37;7.20;;;;;;;23.55;100.00;98767.14;1682113;84;21070;-73
2021/08/19 11:14:21;;;;;;;16.42;9.45;;;;;;;23.73;100.00;98764.24;1724625;81;20886;-73
2021/08/19 11:17:00;;;;;;;25.25;18.10;;;;;;;23.96;100.00;98762.72;1723961;82;20877;-75
2021/08/19 11:19:30;;;;;;;23.95;18.12;;;;;;;24.18;100.00;98763.89;1724521;83;20937;-73
2021/08/19 11:22:02;;;;;;;9.18;5.60;;;;;;;24.43;100.00;98767.64;1723961;82;20944;-73
2021/08/19 11:24:32;;;;;;;8.45;3.58;;;;;;;24.61;100.00;98765.53;1713867;83;20883;-74
2021/08/19 11:27:09;;;;;;;5.15;3.67;;;;;;;24.77;100.00;98772.45;1686841;84;20923;-73
2021/08/19 11:29:45;;;;;;;10.30;6.03;;;;;;;24.93;100.00;98774.92;1722047;83;21773;-71
2021/08/19 11:32:16;;;;;;;24.65;7.10;;;;;;;25.10;100.00;98760.30;1725354;83;20941;-71
2021/08/19 11:34:48;;;;;;;13.13;11.18;;;;;;;25.25;99.88;98758.33;1714041;82;20951;-70
2021/08/19 11:37:30;;;;;;;9.03;6.95;;;;;;;25.39;100.00;98755.48;1686069;84;20936;-70